Time;durP1;ratioP1;P1;durP2;ratioP2;P2;SDS_P1;SDS_P2;PMS_P1;PMS_P2;Temp;Humidity;BMP_temperature;BMP_pressure;BME280_temperature;BME280_humidity;BME280_pressure;Samples;Min_cycle;Max_cycle;Signal;HPM_P1;HPM_P2
2021/03/14 00:01:10;;;;;;;;;;;2.80;99.90;;;;;;20887501;28;20045;-79
2021/03/14 00:11:10;;;;;;;0.40;0.40;;;2.30;99.90;;;;;;20904100;28;19970;-81
2021/03/14 00:21:11;;;;;;;;;;;2.10;99.90;;;;;;20900983;28;20033;-80
2021/03/14 00:31:12;;;;;;;1.40;0.70;;;2.40;99.90;;;;;;20892678;28;20006;-77
2021/03/14 00:41:13;;;;;;;;;;;2.60;99.90;;;;;;20902001;28;20036;-77
2021/03/14 00:51:14;;;;;;;3.67;0.43;;;2.80;99.90;;;;;;20897771;28;19927;-75
2021/03/14 01:01:20;;;;;;;6.22;0.57;;;2.70;99.90;;;;;;20892425;28;20342;-81
2021/03/14 01:11:22;;;;;;;0.82;0.68;;;2.70;99.90;;;;;;20892046;28;20033;-78
2021/03/14 01:21:48;;;;;;;2.83;1.17;;;2.80;99.90;;;;;;20880105;28;20124;-79
2021/03/14 01:31:49;;;;;;;;;;;2.90;99.90;;;;;;20899679;28;20381;-77
2021/03/14 01:41:50;;;;;;;1.10;0.95;;;3.00;99.90;;;;;;20880383;28;19913;-80
2021/03/14 01:51:51;;;;;;;1.67;0.95;;;3.00;99.90;;;;;;20895469;28;20453;-81
2021/03/14 02:01:52;;;;;;;4.70;0.73;;;3.00;99.90;;;;;;20893053;28;20065;-79
2021/03/14 02:11:56;;;;;;;;;;;3.00;99.90;;;;;;20896122;22;20505;-77
2021/03/14 02:22:01;;;;;;;6.13;0.68;;;3.10;99.90;;;;;;20996676;28;20373;-78
2021/03/14 02:32:05;;;;;;;2.30;0.60;;;3.10;99.90;;;;;;20976059;28;20036;-76
2021/03/14 02:42:09;;;;;;;2.20;0.55;;;3.10;99.90;;;;;;20995357;28;20067;-77
2021/03/14 02:52:10;;;;;;;0.35;0.32;;;3.00;99.90;;;;;;20993511;28;20105;-77
2021/03/14 03:02:11;;;;;;;;;;;2.80;99.90;;;;;;20983504;28;20071;-77
2021/03/14 03:12:14;;;;;;;0.20;0.20;;;2.50;99.90;;;;;;20994321;28;20600;-77
2021/03/14 03:22:16;;;;;;;0.30;0.30;;;2.00;99.90;;;;;;20991053;28;20032;-78
2021/03/14 03:32:16;;;;;;;1.15;0.50;;;2.10;99.90;;;;;;20973988;28;20407;-77
2021/03/14 03:42:21;;;;;;;3.00;0.75;;;2.00;99.90;;;;;;20976867;28;20048;-77
2021/03/14 03:52:22;;;;;;;0.77;0.55;;;2.10;99.90;;;;;;21010265;28;20056;-77
2021/03/14 04:02:24;;;;;;;2.92;0.82;;;2.30;99.90;;;;;;21020151;28;20056;-77
2021/03/14 04:12:25;;;;;;;3.00;0.90;;;2.30;99.90;;;;;;21019038;28;20391;-76
2021/03/14 04:22:27;;;;;;;;;;;2.40;99.90;;;;;;21019936;28;20043;-77
2021/03/14 04:32:28;;;;;;;2.35;0.93;;;2.50;99.90;;;;;;21018736;28;19912;-77
2021/03/14 04:42:29;;;;;;;2.58;0.88;;;2.60;99.90;;;;;;21017634;28;20032;-77
2021/03/14 04:52:30;;;;;;;4.22;1.10;;;2.60;99.90;;;;;;21015959;28;20033;-77
2021/03/14 05:02:31;;;;;;;;;;;2.20;99.90;;;;;;20972771;28;20605;-77
2021/03/14 05:12:32;;;;;;;3.85;0.55;;;2.20;99.90;;;;;;20982677;28;20431;-77
2021/03/14 05:22:33;;;;;;;;;;;2.30;99.90;;;;;;20966993;28;20036;-77
2021/03/14 05:32:34;;;;;;;0.50;0.40;;;1.80;99.90;;;;;;21000040;28;19955;-76
2021/03/14 05:42:35;;;;;;;0.20;0.20;;;1.70;99.90;;;;;;20998624;28;20021;-76
2021/03/14 05:52:41;;;;;;;;;;;1.60;99.90;;;;;;20997519;28;20111;-76
2021/03/14 06:02:43;;;;;;;0.57;0.52;;;1.60;99.90;;;;;;20978966;28;19915;-76
2021/03/14 06:12:45;;;;;;;0.57;0.40;;;1.60;99.90;;;;;;20995304;28;20051;-75
2021/03/14 06:22:46;;;;;;;0.50;0.47;;;1.60;99.90;;;;;;20977085;28;20029;-75
2021/03/14 06:33:16;;;;;;;1.67;0.50;;;1.70;99.90;;;;;;20976458;28;20028;-76
2021/03/14 06:43:17;;;;;;;52.55;17.52;;;1.70;99.90;;;;;;20975954;28;20041;-76
2021/03/14 06:53:23;;;;;;;1.95;1.20;;;1.70;99.90;;;;;;20991463;28;20483;-76
2021/03/14 07:03:24;;;;;;;1.58;1.05;;;1.70;99.90;;;;;;20989933;28;20025;-76
2021/03/14 07:13:25;;;;;;;7.43;1.35;;;1.70;99.90;;;;;;20990524;28;20039;-76
2021/03/14 07:23:33;;;;;;;10.73;1.95;;;1.80;99.90;;;;;;20990358;28;20030;-76
2021/03/14 07:33:36;;;;;;;4.28;1.70;;;1.80;99.90;;;;;;20990178;28;20579;-76
2021/03/14 07:43:37;;;;;;;4.28;1.98;;;2.00;99.90;;;;;;20971364;28;20492;-76
2021/03/14 07:53:37;;;;;;;;;;;2.60;99.90;;;;;;20970881;28;20109;-76
2021/03/14 08:03:38;;;;;;;2.88;1.00;;;3.30;99.90;;;;;;20985429;28;19986;-77
2021/03/14 08:13:42;;;;;;;6.00;1.70;;;3.30;99.90;;;;;;20999612;23;20336;-81
2021/03/14 08:23:45;;;;;;;4.38;1.05;;;4.80;99.90;;;;;;21067991;28;20779;-82
2021/03/14 08:33:47;;;;;;;8.38;1.10;;;5.20;99.90;;;;;;21056821;28;20445;-81
2021/03/14 08:44:14;;;;;;;1.92;0.80;;;4.80;99.90;;;;;;20991365;28;20498;-81
2021/03/14 08:54:38;;;;;;;6.03;0.95;;;4.30;99.90;;;;;;21022991;28;20452;-81
2021/03/14 09:04:43;;;;;;;4.60;1.40;;;4.10;99.90;;;;;;21082252;28;20040;-81
2021/03/14 09:14:55;;;;;;;6.88;1.15;;;4.10;99.90;;;;;;21009140;28;678369;-79
2021/03/14 09:25:13;;;;;;;19.85;6.10;;;3.70;99.90;;;;;;20986041;28;20064;-80
2021/03/14 09:35:27;;;;;;;2.20;1.30;;;3.60;99.90;;;;;;20902294;28;20052;-79
2021/03/14 09:45:32;;;;;;;4.93;0.95;;;3.70;99.90;;;;;;20905319;28;20033;-77
2021/03/14 09:55:47;;;;;;;3.25;0.95;;;3.80;99.90;;;;;;20919751;28;20091;-80
2021/03/14 10:06:16;;;;;;;2.35;0.90;;;4.30;99.90;;;;;;20918888;28;20029;-80
2021/03/14 10:16:34;;;;;;;3.10;0.88;;;4.50;99.90;;;;;;20947500;28;20032;-80
2021/03/14 10:26:58;;;;;;;2.00;0.90;;;4.40;99.90;;;;;;20928093;28;20391;-79
2021/03/14 10:37:03;;;;;;;5.83;0.80;;;4.30;99.90;;;;;;20922979;28;20084;-78
2021/03/14 10:47:15;;;;;;;6.43;0.90;;;4.50;99.90;;;;;;20947696;28;20029;-80
2021/03/14 10:57:19;;;;;;;3.60;0.90;;;4.60;99.90;;;;;;20924053;28;20029;-79
2021/03/14 11:07:35;;;;;;;1.87;1.00;;;4.70;99.90;;;;;;20948275;28;20289;-78
2021/03/14 11:18:04;;;;;;;2.40;1.40;;;4.50;99.90;;;;;;20948552;28;20032;-79
2021/03/14 11:28:25;;;;;;;9.20;1.33;;;4.10;99.90;;;;;;20934118;28;20126;-78
2021/03/14 11:38:26;;;;;;;3.95;0.85;;;3.30;99.90;;;;;;20921769;28;20033;-78
2021/03/14 11:48:46;;;;;;;4.05;1.40;;;2.90;99.90;;;;;;20957263;28;20301;-79
2021/03/14 11:58:49;;;;;;;4.55;1.15;;;2.80;99.90;;;;;;20925222;28;20060;-80
2021/03/14 12:08:54;;;;;;;4.25;1.05;;;2.60;99.90;;;;;;21030028;28;20032;-79
2021/03/14 12:18:56;;;;;;;3.45;0.98;;;2.40;99.90;;;;;;20990254;28;20037;-79
2021/03/14 12:28:57;;;;;;;8.48;1.90;;;2.30;99.90;;;;;;21041721;28;20044;-80
2021/03/14 12:39:04;;;;;;;4.88;1.35;;;2.10;99.90;;;;;;21018852;28;20111;-79
2021/03/14 12:49:06;;;;;;;5.00;1.65;;;2.40;99.90;;;;;;20949945;28;20029;-82
2021/03/14 12:59:07;;;;;;;3.67;2.08;;;2.60;99.90;;;;;;20991585;28;20107;-81
2021/03/14 13:09:11;;;;;;;3.88;2.03;;;2.90;99.90;;;;;;20989911;28;20061;-81
2021/03/14 13:19:11;;;;;;;;;;;2.70;99.90;;;;;;20983348;28;20052;-79
2021/03/14 13:29:12;;;;;;;4.95;2.00;;;2.50;99.90;;;;;;21015999;28;20688;-78
2021/03/14 13:39:13;;;;;;;;;;;2.40;99.90;;;;;;21003581;28;20047;-80
2021/03/14 13:49:14;;;;;;;6.90;2.10;;;2.50;99.90;;;;;;20941887;28;19916;-80
2021/03/14 13:59:14;;;;;;;;;;;2.50;99.90;;;;;;20936229;28;20054;-80
2021/03/14 14:09:15;;;;;;;5.70;2.58;;;2.60;99.90;;;;;;20974042;28;20473;-80
2021/03/14 14:19:16;;;;;;;;;;;2.60;99.90;;;;;;21014953;22;20063;-76
2021/03/14 14:29:17;;;;;;;7.53;2.03;;;2.60;99.90;;;;;;20976457;28;20047;-75
2021/03/14 14:39:18;;;;;;;;;;;2.70;99.90;;;;;;20969544;28;20041;-76
2021/03/14 14:49:19;;;;;;;6.30;2.45;;;2.80;99.90;;;;;;20970737;28;19932;-77
2021/03/14 14:59:21;;;;;;;4.65;1.38;;;3.20;99.90;;;;;;20934897;28;20044;-77
2021/03/14 15:09:22;;;;;;;5.22;1.42;;;3.40;99.90;;;;;;20969671;28;20062;-77
2021/03/14 15:19:23;;;;;;;2.65;1.05;;;3.40;99.90;;;;;;20950181;28;20685;-76
2021/03/14 15:29:25;;;;;;;2.45;1.33;;;3.30;99.90;;;;;;20968050;28;20139;-75
2021/03/14 15:39:26;;;;;;;1.27;0.70;;;3.00;99.90;;;;;;20951157;28;20414;-77
2021/03/14 15:49:28;;;;;;;21.10;9.13;;;3.00;99.90;;;;;;20973331;28;20039;-77
2021/03/14 15:59:32;;;;;;;13.25;6.70;;;3.60;99.90;;;;;;20972434;28;20676;-76
2021/03/14 16:09:33;;;;;;;5.05;1.73;;;3.90;99.90;;;;;;21020135;28;20055;-77
2021/03/14 16:19:34;;;;;;;9.18;2.47;;;3.90;99.90;;;;;;21050834;28;20035;-76
2021/03/14 16:29:35;;;;;;;5.82;2.08;;;3.90;99.90;;;;;;20978186;28;20513;-77
2021/03/14 16:39:36;;;;;;;10.07;3.00;;;3.90;99.90;;;;;;20905968;28;20533;-76
2021/03/14 16:49:37;;;;;;;8.80;2.73;;;3.90;99.90;;;;;;20966393;28;20040;-76
2021/03/14 16:59:38;;;;;;;4.83;2.63;;;3.90;99.90;;;;;;20956812;28;20372;-76
2021/03/14 17:09:39;;;;;;;8.52;3.03;;;3.80;99.90;;;;;;20966895;28;20037;-76
2021/03/14 17:19:40;;;;;;;4.25;2.35;;;3.80;99.90;;;;;;20968247;28;20410;-76
2021/03/14 17:29:41;;;;;;;5.67;2.47;;;3.80;99.90;;;;;;20951862;28;20474;-76
2021/03/14 17:39:42;;;;;;;23.50;6.20;;;3.80;99.90;;;;;;20988553;28;20302;-76
2021/03/14 17:49:43;;;;;;;22.02;9.15;;;3.80;99.90;;;;;;20960563;28;20037;-76
2021/03/14 17:59:44;;;;;;;8.60;3.40;;;3.80;99.90;;;;;;20976659;28;20436;-76
2021/03/14 18:09:44;;;;;;;5.57;2.50;;;3.80;99.90;;;;;;21026803;28;20051;-76
2021/03/14 18:19:45;;;;;;;6.77;2.03;;;3.80;99.90;;;;;;21059144;28;20044;-75
2021/03/14 18:29:46;;;;;;;6.67;3.00;;;3.70;99.90;;;;;;20965179;28;20040;-77
2021/03/14 18:39:47;;;;;;;6.40;2.10;;;3.80;99.90;;;;;;20963279;28;20388;-76
2021/03/14 18:49:48;;;;;;;5.03;2.60;;;3.80;99.90;;;;;;20974565;28;20040;-76
2021/03/14 18:59:50;;;;;;;;;;;3.80;99.90;;;;;;20955924;28;21279;-76
2021/03/14 19:09:51;;;;;;;5.23;3.17;;;3.80;99.90;;;;;;20943230;28;20414;-76
2021/03/14 19:19:53;;;;;;;;;;;3.70;99.90;;;;;;20951092;28;20843;-75
2021/03/14 19:29:53;;;;;;;4.60;2.90;;;3.70;99.90;;;;;;20948765;28;20306;-76
2021/03/14 19:39:54;;;;;;;10.82;2.85;;;3.60;99.90;;;;;;20965819;28;20029;-75
2021/03/14 19:49:55;;;;;;;5.33;2.93;;;3.50;99.90;;;;;;20944366;28;20040;-76
2021/03/14 19:59:56;;;;;;;15.33;7.87;;;3.50;99.90;;;;;;20947325;28;20029;-76
2021/03/14 20:09:57;;;;;;;4.33;2.30;;;3.50;99.90;;;;;;20984607;28;20042;-76
2021/03/14 20:19:57;;;;;;;4.20;2.80;;;3.40;99.90;;;;;;21033218;28;20907;-77
2021/03/14 20:29:59;;;;;;;2.78;2.08;;;3.00;99.90;;;;;;21054367;28;20401;-76
2021/03/14 20:40:00;;;;;;;5.22;2.65;;;2.80;99.90;;;;;;20972685;28;20044;-76
2021/03/14 20:50:02;;;;;;;3.70;2.35;;;2.60;99.90;;;;;;20968044;28;20040;-76
2021/03/14 21:00:05;;;;;;;4.97;2.47;;;2.60;99.90;;;;;;20967351;28;20040;-76
2021/03/14 21:10:07;;;;;;;3.38;2.00;;;2.60;99.90;;;;;;20966768;28;20063;-76
2021/03/14 21:20:08;;;;;;;2.15;1.48;;;2.60;99.90;;;;;;20982404;28;20123;-76
2021/03/14 21:30:10;;;;;;;1.52;1.20;;;2.40;99.90;;;;;;20980203;28;20394;-75
2021/03/14 21:40:12;;;;;;;1.88;1.30;;;2.30;99.90;;;;;;20980618;28;20033;-76
2021/03/14 21:50:13;;;;;;;1.10;0.90;;;2.20;99.90;;;;;;20978869;28;20032;-76
2021/03/14 22:00:15;;;;;;;1.77;1.10;;;2.10;99.90;;;;;;20979717;28;20068;-76
2021/03/14 22:10:16;;;;;;;1.23;0.98;;;2.00;99.90;;;;;;21000869;28;20036;-76
2021/03/14 22:20:18;;;;;;;2.22;1.20;;;2.00;99.90;;;;;;21060913;28;20031;-76
2021/03/14 22:30:19;;;;;;;2.35;1.60;;;2.20;99.90;;;;;;21062688;28;20098;-76
2021/03/14 22:40:25;;;;;;;3.03;1.90;;;2.30;99.90;;;;;;20995158;28;20444;-76
2021/03/14 22:50:44;;;;;;;4.30;3.03;;;2.20;99.90;;;;;;20973317;28;20067;-76
2021/03/14 23:00:50;;;;;;;4.32;2.90;;;1.80;99.90;;;;;;20973787;28;20101;-76
2021/03/14 23:10:57;;;;;;;5.20;2.90;;;1.40;99.90;;;;;;21052096;22;20101;-79
2021/03/14 23:20:58;;;;;;;6.38;3.58;;;1.30;99.90;;;;;;21016243;28;20035;-77
2021/03/14 23:30:59;;;;;;;6.07;3.45;;;1.40;99.90;;;;;;20896782;28;20025;-77
2021/03/14 23:41:00;;;;;;;5.40;3.55;;;1.40;99.90;;;;;;20910799;28;20036;-77
2021/03/14 23:51:02;;;;;;;15.55;8.13;;;1.50;99.90;;;;;;20909689;28;20083;-76
